Etusivu
METAR-TAF:

METAR-TAF

Lentoasemat :

Port Angeles, Washington, Yhdysvallat

Leveyspiiri: 48-08-27N, Pituuspiiri: 123-24-39W, korkeus merenpinnasta: 4 m

Tämänhetkinen sää

Tämä raportti tehtiin 27 minuuttia sitten, kello 06.55 UTC
Tuuli 15 kn lännestä puuskistuen 24 kn:hen
Lämpötila 6°C
Kosteus 81%
Ilmanpaine 1014 hPa
Näkyvyys: 16.1 km
Hajanaisia pilviä 3800 ft:n korkeudessa
Hajonneita pilviä 4600 ft:n korkeudessa
Pilvistä 8000 ft:n korkeudessa

METAR: KNOW 260655Z AUTO 28015G24KT 10SM SCT038 BKN046 OVC080 06/03 A2994 RMK AO2 T00640025 400850038

Aika: 23:22 (07:22 UTC)


TAF: puuttuu

Säähavainnot ja -ennusteet yli 4000 lentoasemalta (METAR- ja TAF-raportit).

Käytössä olevat sääasemat on merkitty karttaan keltaisilla ja punaisilla pisteillä.

Aseta hiiri pisteen päälle nähdäksesi sääaseman nimen.

Klikkaa sitten nähdäksesi säähavainnot ja -ennusteet.

Kartan vaihtaminen: klikkaa mustalla rastilla varustettuja vihreitä pisteitä, niin voit zoomata sisään; viivalla varustettua vihreää pistettä, niin voit zoomata ulos tai vihreitä nuolia, niin pääset viereisille kartoille.


METAR-TAF: